sensor_id;sensor_type;location;lat;lon;timestamp;P1;durP1;ratioP1;P2;durP2;ratioP2
18576;SDS011;9418;52.694;13.294;2024-02-26T00:01:02;5.33;;;4.83;;
18576;SDS011;9418;52.694;13.294;2024-02-26T00:03:30;5.03;;;4.53;;
18576;SDS011;9418;52.694;13.294;2024-02-26T00:05:58;5.90;;;4.57;;
18576;SDS011;9418;52.694;13.294;2024-02-26T00:08:25;5.70;;;5.17;;
18576;SDS011;9418;52.694;13.294;2024-02-26T00:10:51;5.90;;;4.33;;
18576;SDS011;9418;52.694;13.294;2024-02-26T00:13:18;6.00;;;4.97;;
18576;SDS011;9418;52.694;13.294;2024-02-26T00:15:45;5.23;;;4.73;;
18576;SDS011;9418;52.694;13.294;2024-02-26T00:18:13;6.30;;;5.23;;
18576;SDS011;9418;52.694;13.294;2024-02-26T00:20:40;4.77;;;4.37;;
18576;SDS011;9418;52.694;13.294;2024-02-26T00:23:08;5.63;;;5.03;;
18576;SDS011;9418;52.694;13.294;2024-02-26T00:25:34;4.70;;;4.30;;
18576;SDS011;9418;52.694;13.294;2024-02-26T00:28:01;5.97;;;5.37;;
18576;SDS011;9418;52.694;13.294;2024-02-26T00:30:28;6.67;;;5.00;;
18576;SDS011;9418;52.694;13.294;2024-02-26T00:32:54;7.27;;;5.33;;
18576;SDS011;9418;52.694;13.294;2024-02-26T00:35:22;6.30;;;4.20;;
18576;SDS011;9418;52.694;13.294;2024-02-26T00:37:49;5.10;;;4.67;;
18576;SDS011;9418;52.694;13.294;2024-02-26T00:40:15;4.90;;;4.40;;
18576;SDS011;9418;52.694;13.294;2024-02-26T00:42:42;5.47;;;4.90;;
18576;SDS011;9418;52.694;13.294;2024-02-26T00:45:10;5.70;;;5.10;;
18576;SDS011;9418;52.694;13.294;2024-02-26T00:47:37;5.03;;;4.63;;
18576;SDS011;9418;52.694;13.294;2024-02-26T00:50:06;5.00;;;4.50;;
18576;SDS011;9418;52.694;13.294;2024-02-26T00:52:34;5.40;;;4.33;;
18576;SDS011;9418;52.694;13.294;2024-02-26T00:55:02;6.30;;;5.07;;
18576;SDS011;9418;52.694;13.294;2024-02-26T00:57:29;5.50;;;5.00;;
18576;SDS011;9418;52.694;13.294;2024-02-26T00:59:55;5.90;;;4.77;;
18576;SDS011;9418;52.694;13.294;2024-02-26T01:02:22;5.27;;;4.17;;
18576;SDS011;9418;52.694;13.294;2024-02-26T01:04:48;4.90;;;4.23;;
18576;SDS011;9418;52.694;13.294;2024-02-26T01:07:15;5.73;;;4.47;;
18576;SDS011;9418;52.694;13.294;2024-02-26T01:09:43;5.97;;;5.37;;
18576;SDS011;9418;52.694;13.294;2024-02-26T01:12:09;7.53;;;5.30;;
18576;SDS011;9418;52.694;13.294;2024-02-26T01:14:36;4.63;;;4.23;;
18576;SDS011;9418;52.694;13.294;2024-02-26T01:17:03;5.43;;;4.93;;
18576;SDS011;9418;52.694;13.294;2024-02-26T01:19:29;5.70;;;5.07;;
18576;SDS011;9418;52.694;13.294;2024-02-26T01:21:56;5.43;;;4.70;;
18576;SDS011;9418;52.694;13.294;2024-02-26T01:24:22;5.47;;;4.90;;
18576;SDS011;9418;52.694;13.294;2024-02-26T01:26:50;5.53;;;5.03;;
18576;SDS011;9418;52.694;13.294;2024-02-26T01:29:17;7.10;;;5.03;;
18576;SDS011;9418;52.694;13.294;2024-02-26T01:31:43;8.37;;;4.90;;
18576;SDS011;9418;52.694;13.294;2024-02-26T01:34:10;5.70;;;5.10;;
18576;SDS011;9418;52.694;13.294;2024-02-26T01:36:37;5.40;;;4.50;;
18576;SDS011;9418;52.694;13.294;2024-02-26T01:39:03;8.60;;;6.37;;
18576;SDS011;9418;52.694;13.294;2024-02-26T01:41:30;5.87;;;5.17;;
18576;SDS011;9418;52.694;13.294;2024-02-26T01:43:58;13.50;;;5.27;;
18576;SDS011;9418;52.694;13.294;2024-02-26T01:46:24;6.33;;;5.33;;
18576;SDS011;9418;52.694;13.294;2024-02-26T01:48:51;5.97;;;5.37;;
18576;SDS011;9418;52.694;13.294;2024-02-26T01:51:18;5.57;;;5.13;;
18576;SDS011;9418;52.694;13.294;2024-02-26T01:53:45;7.47;;;5.33;;
18576;SDS011;9418;52.694;13.294;2024-02-26T01:56:12;5.60;;;5.00;;
18576;SDS011;9418;52.694;13.294;2024-02-26T01:58:40;5.53;;;5.03;;
18576;SDS011;9418;52.694;13.294;2024-02-26T02:01:08;6.77;;;4.80;;
18576;SDS011;9418;52.694;13.294;2024-02-26T02:03:35;6.03;;;5.43;;
18576;SDS011;9418;52.694;13.294;2024-02-26T02:06:02;5.83;;;5.00;;
18576;SDS011;9418;52.694;13.294;2024-02-26T02:08:30;5.90;;;5.40;;
18576;SDS011;9418;52.694;13.294;2024-02-26T02:10:56;5.93;;;5.37;;
18576;SDS011;9418;52.694;13.294;2024-02-26T02:13:23;8.50;;;5.07;;
18576;SDS011;9418;52.694;13.294;2024-02-26T02:15:50;5.40;;;4.90;;
18576;SDS011;9418;52.694;13.294;2024-02-26T02:18:17;5.77;;;5.17;;
18576;SDS011;9418;52.694;13.294;2024-02-26T02:20:46;4.93;;;4.53;;
18576;SDS011;9418;52.694;13.294;2024-02-26T02:23:13;5.17;;;4.67;;
18576;SDS011;9418;52.694;13.294;2024-02-26T02:25:40;5.10;;;4.70;;
18576;SDS011;9418;52.694;13.294;2024-02-26T02:28:06;5.87;;;4.70;;
18576;SDS011;9418;52.694;13.294;2024-02-26T02:30:33;4.50;;;4.10;;
18576;SDS011;9418;52.694;13.294;2024-02-26T02:33:01;5.37;;;4.67;;
18576;SDS011;9418;52.694;13.294;2024-02-26T02:35:27;5.37;;;4.63;;
18576;SDS011;9418;52.694;13.294;2024-02-26T02:37:55;5.20;;;4.70;;
18576;SDS011;9418;52.694;13.294;2024-02-26T02:40:23;5.70;;;4.80;;
18576;SDS011;9418;52.694;13.294;2024-02-26T02:42:49;5.00;;;4.60;;
18576;SDS011;9418;52.694;13.294;2024-02-26T02:45:16;4.30;;;4.00;;
18576;SDS011;9418;52.694;13.294;2024-02-26T02:47:42;4.73;;;4.33;;
18576;SDS011;9418;52.694;13.294;2024-02-26T02:50:09;4.50;;;4.10;;
18576;SDS011;9418;52.694;13.294;2024-02-26T02:52:36;4.60;;;4.20;;
18576;SDS011;9418;52.694;13.294;2024-02-26T02:55:04;4.90;;;4.50;;
18576;SDS011;9418;52.694;13.294;2024-02-26T02:57:31;4.47;;;4.07;;
18576;SDS011;9418;52.694;13.294;2024-02-26T02:59:58;4.20;;;3.73;;
18576;SDS011;9418;52.694;13.294;2024-02-26T03:02:25;4.60;;;4.20;;
18576;SDS011;9418;52.694;13.294;2024-02-26T03:04:51;4.80;;;4.27;;
18576;SDS011;9418;52.694;13.294;2024-02-26T03:07:18;4.00;;;3.70;;
18576;SDS011;9418;52.694;13.294;2024-02-26T03:09:45;4.10;;;3.80;;
18576;SDS011;9418;52.694;13.294;2024-02-26T03:12:13;4.73;;;4.30;;
18576;SDS011;9418;52.694;13.294;2024-02-26T03:14:40;6.23;;;3.97;;
18576;SDS011;9418;52.694;13.294;2024-02-26T03:17:06;5.87;;;4.03;;
18576;SDS011;9418;52.694;13.294;2024-02-26T03:19:33;7.20;;;4.17;;
18576;SDS011;9418;52.694;13.294;2024-02-26T03:21:59;3.93;;;3.63;;
18576;SDS011;9418;52.694;13.294;2024-02-26T03:24:27;4.47;;;4.07;;
18576;SDS011;9418;52.694;13.294;2024-02-26T03:26:53;9.83;;;3.90;;
18576;SDS011;9418;52.694;13.294;2024-02-26T03:29:21;4.00;;;3.70;;
18576;SDS011;9418;52.694;13.294;2024-02-26T03:31:48;4.33;;;4.00;;
18576;SDS011;9418;52.694;13.294;2024-02-26T03:34:15;6.57;;;3.97;;
18576;SDS011;9418;52.694;13.294;2024-02-26T03:36:42;4.27;;;3.93;;
18576;SDS011;9418;52.694;13.294;2024-02-26T03:39:09;4.60;;;4.30;;
18576;SDS011;9418;52.694;13.294;2024-02-26T03:41:36;3.73;;;3.43;;
18576;SDS011;9418;52.694;13.294;2024-02-26T03:44:02;5.00;;;4.23;;
18576;SDS011;9418;52.694;13.294;2024-02-26T03:46:31;3.93;;;3.60;;
18576;SDS011;9418;52.694;13.294;2024-02-26T03:48:57;3.50;;;3.30;;
18576;SDS011;9418;52.694;13.294;2024-02-26T03:51:24;4.50;;;4.10;;
18576;SDS011;9418;52.694;13.294;2024-02-26T03:53:51;4.10;;;3.80;;
18576;SDS011;9418;52.694;13.294;2024-02-26T03:56:18;4.50;;;4.10;;
18576;SDS011;9418;52.694;13.294;2024-02-26T03:58:45;3.30;;;3.10;;
18576;SDS011;9418;52.694;13.294;2024-02-26T04:01:12;3.57;;;3.37;;
18576;SDS011;9418;52.694;13.294;2024-02-26T04:03:40;4.10;;;3.60;;
18576;SDS011;9418;52.694;13.294;2024-02-26T04:06:08;3.70;;;3.40;;
18576;SDS011;9418;52.694;13.294;2024-02-26T04:08:35;3.97;;;3.67;;
18576;SDS011;9418;52.694;13.294;2024-02-26T04:11:02;3.93;;;3.63;;
18576;SDS011;9418;52.694;13.294;2024-02-26T04:13:32;4.00;;;3.60;;
18576;SDS011;9418;52.694;13.294;2024-02-26T04:15:58;3.20;;;3.00;;
18576;SDS011;9418;52.694;13.294;2024-02-26T04:18:26;3.40;;;3.10;;
18576;SDS011;9418;52.694;13.294;2024-02-26T04:20:54;4.10;;;3.80;;
18576;SDS011;9418;52.694;13.294;2024-02-26T04:23:21;3.80;;;3.30;;
18576;SDS011;9418;52.694;13.294;2024-02-26T04:25:48;4.10;;;3.80;;
18576;SDS011;9418;52.694;13.294;2024-02-26T04:28:15;3.77;;;3.47;;
18576;SDS011;9418;52.694;13.294;2024-02-26T04:30:42;3.63;;;3.33;;
18576;SDS011;9418;52.694;13.294;2024-02-26T04:33:08;4.10;;;3.80;;
18576;SDS011;9418;52.694;13.294;2024-02-26T04:35:35;3.43;;;3.23;;
18576;SDS011;9418;52.694;13.294;2024-02-26T04:38:03;4.40;;;4.00;;
18576;SDS011;9418;52.694;13.294;2024-02-26T04:40:30;3.60;;;3.30;;
18576;SDS011;9418;52.694;13.294;2024-02-26T04:42:56;3.90;;;3.63;;
18576;SDS011;9418;52.694;13.294;2024-02-26T04:45:23;3.27;;;3.07;;
18576;SDS011;9418;52.694;13.294;2024-02-26T04:47:50;5.93;;;3.50;;
18576;SDS011;9418;52.694;13.294;2024-02-26T04:50:16;3.60;;;3.30;;
18576;SDS011;9418;52.694;13.294;2024-02-26T04:52:43;4.00;;;3.70;;
18576;SDS011;9418;52.694;13.294;2024-02-26T04:55:11;4.13;;;3.83;;
18576;SDS011;9418;52.694;13.294;2024-02-26T04:57:37;4.47;;;4.13;;
18576;SDS011;9418;52.694;13.294;2024-02-26T05:00:04;5.33;;;4.20;;
18576;SDS011;9418;52.694;13.294;2024-02-26T05:02:32;4.43;;;4.03;;
18576;SDS011;9418;52.694;13.294;2024-02-26T05:05:03;4.20;;;3.90;;
18576;SDS011;9418;52.694;13.294;2024-02-26T05:07:30;3.80;;;3.50;;
18576;SDS011;9418;52.694;13.294;2024-02-26T05:09:56;5.80;;;3.37;;
18576;SDS011;9418;52.694;13.294;2024-02-26T05:12:24;3.57;;;3.30;;
18576;SDS011;9418;52.694;13.294;2024-02-26T05:14:51;3.90;;;3.60;;
18576;SDS011;9418;52.694;13.294;2024-02-26T05:17:17;4.03;;;3.73;;
18576;SDS011;9418;52.694;13.294;2024-02-26T05:19:44;3.10;;;2.80;;
18576;SDS011;9418;52.694;13.294;2024-02-26T05:22:11;3.53;;;3.23;;
18576;SDS011;9418;52.694;13.294;2024-02-26T05:24:37;3.97;;;3.67;;
18576;SDS011;9418;52.694;13.294;2024-02-26T05:27:04;4.67;;;3.00;;
18576;SDS011;9418;52.694;13.294;2024-02-26T05:29:32;3.80;;;3.50;;
18576;SDS011;9418;52.694;13.294;2024-02-26T05:31:59;3.60;;;3.30;;
18576;SDS011;9418;52.694;13.294;2024-02-26T05:34:26;3.93;;;3.47;;
18576;SDS011;9418;52.694;13.294;2024-02-26T05:36:55;5.00;;;3.77;;
18576;SDS011;9418;52.694;13.294;2024-02-26T05:39:21;5.40;;;3.53;;
18576;SDS011;9418;52.694;13.294;2024-02-26T05:41:48;3.90;;;3.60;;
18576;SDS011;9418;52.694;13.294;2024-02-26T05:44:15;3.80;;;3.50;;
18576;SDS011;9418;52.694;13.294;2024-02-26T05:46:43;3.97;;;3.60;;
18576;SDS011;9418;52.694;13.294;2024-02-26T05:49:09;4.43;;;3.90;;
18576;SDS011;9418;52.694;13.294;2024-02-26T05:51:36;4.10;;;3.70;;
18576;SDS011;9418;52.694;13.294;2024-02-26T05:54:02;4.13;;;3.80;;
18576;SDS011;9418;52.694;13.294;2024-02-26T05:56:29;4.00;;;3.60;;
18576;SDS011;9418;52.694;13.294;2024-02-26T05:58:56;4.60;;;4.03;;
18576;SDS011;9418;52.694;13.294;2024-02-26T06:01:22;4.17;;;3.87;;
18576;SDS011;9418;52.694;13.294;2024-02-26T06:03:51;3.83;;;3.50;;
18576;SDS011;9418;52.694;13.294;2024-02-26T06:06:17;5.80;;;3.93;;
18576;SDS011;9418;52.694;13.294;2024-02-26T06:08:44;4.07;;;3.67;;
18576;SDS011;9418;52.694;13.294;2024-02-26T06:11:10;9.13;;;3.90;;
18576;SDS011;9418;52.694;13.294;2024-02-26T06:13:37;4.57;;;4.17;;
18576;SDS011;9418;52.694;13.294;2024-02-26T06:16:04;4.23;;;3.90;;
18576;SDS011;9418;52.694;13.294;2024-02-26T06:18:32;4.40;;;4.00;;
18576;SDS011;9418;52.694;13.294;2024-02-26T06:21:00;4.67;;;4.00;;
18576;SDS011;9418;52.694;13.294;2024-02-26T06:23:27;9.13;;;4.70;;
18576;SDS011;9418;52.694;13.294;2024-02-26T06:25:54;4.57;;;4.27;;
18576;SDS011;9418;52.694;13.294;2024-02-26T06:28:20;5.07;;;4.57;;
18576;SDS011;9418;52.694;13.294;2024-02-26T06:30:47;6.77;;;5.10;;
18576;SDS011;9418;52.694;13.294;2024-02-26T06:33:15;4.67;;;4.20;;
18576;SDS011;9418;52.694;13.294;2024-02-26T06:35:42;4.63;;;4.23;;
18576;SDS011;9418;52.694;13.294;2024-02-26T06:38:10;5.40;;;4.83;;
18576;SDS011;9418;52.694;13.294;2024-02-26T06:40:38;4.73;;;4.03;;
18576;SDS011;9418;52.694;13.294;2024-02-26T06:43:05;4.90;;;4.50;;
18576;SDS011;9418;52.694;13.294;2024-02-26T06:45:32;5.87;;;5.17;;
18576;SDS011;9418;52.694;13.294;2024-02-26T06:47:58;5.00;;;4.43;;
18576;SDS011;9418;52.694;13.294;2024-02-26T06:50:25;5.43;;;4.90;;
18576;SDS011;9418;52.694;13.294;2024-02-26T06:52:52;7.37;;;4.97;;
18576;SDS011;9418;52.694;13.294;2024-02-26T06:55:20;4.87;;;4.40;;
18576;SDS011;9418;52.694;13.294;2024-02-26T06:57:47;4.90;;;4.60;;
18576;SDS011;9418;52.694;13.294;2024-02-26T07:00:14;8.40;;;4.90;;
18576;SDS011;9418;52.694;13.294;2024-02-26T07:02:41;5.00;;;4.60;;
18576;SDS011;9418;52.694;13.294;2024-02-26T07:05:08;5.80;;;5.20;;
18576;SDS011;9418;52.694;13.294;2024-02-26T07:07:35;6.27;;;5.40;;
18576;SDS011;9418;52.694;13.294;2024-02-26T07:10:02;7.43;;;6.73;;
18576;SDS011;9418;52.694;13.294;2024-02-26T07:12:32;11.10;;;7.40;;
18576;SDS011;9418;52.694;13.294;2024-02-26T07:14:58;13.70;;;8.80;;
18576;SDS011;9418;52.694;13.294;2024-02-26T07:17:25;10.70;;;8.90;;
18576;SDS011;9418;52.694;13.294;2024-02-26T07:19:52;11.80;;;8.93;;
18576;SDS011;9418;52.694;13.294;2024-02-26T07:22:18;12.97;;;10.40;;
18576;SDS011;9418;52.694;13.294;2024-02-26T07:24:45;7.30;;;6.60;;
18576;SDS011;9418;52.694;13.294;2024-02-26T07:27:11;7.70;;;6.87;;
18576;SDS011;9418;52.694;13.294;2024-02-26T07:29:39;8.33;;;6.07;;
18576;SDS011;9418;52.694;13.294;2024-02-26T07:32:06;6.63;;;6.03;;
18576;SDS011;9418;52.694;13.294;2024-02-26T07:34:32;7.03;;;6.33;;
18576;SDS011;9418;52.694;13.294;2024-02-26T07:37:00;10.13;;;6.50;;
18576;SDS011;9418;52.694;13.294;2024-02-26T07:39:28;6.83;;;6.13;;
18576;SDS011;9418;52.694;13.294;2024-02-26T07:41:54;6.10;;;5.50;;
18576;SDS011;9418;52.694;13.294;2024-02-26T07:44:21;7.73;;;7.03;;
18576;SDS011;9418;52.694;13.294;2024-02-26T07:46:49;7.40;;;5.87;;
18576;SDS011;9418;52.694;13.294;2024-02-26T07:49:15;7.53;;;6.83;;
18576;SDS011;9418;52.694;13.294;2024-02-26T07:51:42;7.43;;;6.60;;
18576;SDS011;9418;52.694;13.294;2024-02-26T07:54:08;6.70;;;6.20;;
18576;SDS011;9418;52.694;13.294;2024-02-26T07:56:35;6.80;;;6.20;;
18576;SDS011;9418;52.694;13.294;2024-02-26T07:59:02;7.13;;;6.33;;
18576;SDS011;9418;52.694;13.294;2024-02-26T08:01:28;8.50;;;7.17;;
18576;SDS011;9418;52.694;13.294;2024-02-26T08:03:56;7.37;;;6.67;;
18576;SDS011;9418;52.694;13.294;2024-02-26T08:06:23;7.60;;;6.80;;
18576;SDS011;9418;52.694;13.294;2024-02-26T08:08:50;7.33;;;6.73;;
18576;SDS011;9418;52.694;13.294;2024-02-26T08:11:17;6.70;;;6.10;;
18576;SDS011;9418;52.694;13.294;2024-02-26T08:13:43;7.03;;;6.33;;
18576;SDS011;9418;52.694;13.294;2024-02-26T08:16:10;8.63;;;7.37;;
18576;SDS011;9418;52.694;13.294;2024-02-26T08:18:37;9.03;;;7.87;;
18576;SDS011;9418;52.694;13.294;2024-02-26T08:21:05;7.40;;;6.70;;
18576;SDS011;9418;52.694;13.294;2024-02-26T08:23:32;6.97;;;6.20;;
18576;SDS011;9418;52.694;13.294;2024-02-26T08:25:58;7.00;;;6.37;;
18576;SDS011;9418;52.694;13.294;2024-02-26T08:28:25;9.47;;;7.50;;
18576;SDS011;9418;52.694;13.294;2024-02-26T08:30:52;7.73;;;7.00;;
18576;SDS011;9418;52.694;13.294;2024-02-26T08:33:18;7.30;;;6.50;;
18576;SDS011;9418;52.694;13.294;2024-02-26T08:35:45;11.37;;;8.93;;
18576;SDS011;9418;52.694;13.294;2024-02-26T08:38:13;11.60;;;8.40;;
18576;SDS011;9418;52.694;13.294;2024-02-26T08:40:39;8.60;;;7.70;;
18576;SDS011;9418;52.694;13.294;2024-02-26T08:43:06;8.50;;;7.60;;
18576;SDS011;9418;52.694;13.294;2024-02-26T08:45:33;9.13;;;8.20;;
18576;SDS011;9418;52.694;13.294;2024-02-26T08:48:00;9.67;;;7.50;;
18576;SDS011;9418;52.694;13.294;2024-02-26T08:50:26;9.67;;;7.23;;
18576;SDS011;9418;52.694;13.294;2024-02-26T08:52:53;8.53;;;7.73;;
18576;SDS011;9418;52.694;13.294;2024-02-26T08:55:21;9.63;;;8.07;;
18576;SDS011;9418;52.694;13.294;2024-02-26T08:57:48;9.70;;;8.20;;
18576;SDS011;9418;52.694;13.294;2024-02-26T09:00:15;10.13;;;8.67;;
18576;SDS011;9418;52.694;13.294;2024-02-26T09:02:43;12.30;;;8.97;;
18576;SDS011;9418;52.694;13.294;2024-02-26T09:05:09;10.13;;;8.87;;
18576;SDS011;9418;52.694;13.294;2024-02-26T09:07:36;9.57;;;8.40;;
18576;SDS011;9418;52.694;13.294;2024-02-26T09:10:03;9.70;;;8.70;;
18576;SDS011;9418;52.694;13.294;2024-02-26T09:12:32;9.67;;;8.67;;
18576;SDS011;9418;52.694;13.294;2024-02-26T09:14:58;10.40;;;8.57;;
18576;SDS011;9418;52.694;13.294;2024-02-26T09:17:25;9.57;;;8.60;;
18576;SDS011;9418;52.694;13.294;2024-02-26T09:19:51;10.10;;;8.77;;
18576;SDS011;9418;52.694;13.294;2024-02-26T09:22:18;10.43;;;8.83;;
18576;SDS011;9418;52.694;13.294;2024-02-26T09:24:44;10.43;;;8.97;;
18576;SDS011;9418;52.694;13.294;2024-02-26T09:27:11;10.80;;;8.97;;
18576;SDS011;9418;52.694;13.294;2024-02-26T09:29:39;12.40;;;8.97;;
18576;SDS011;9418;52.694;13.294;2024-02-26T09:32:06;10.53;;;9.23;;
18576;SDS011;9418;52.694;13.294;2024-02-26T09:34:32;10.87;;;9.60;;
18576;SDS011;9418;52.694;13.294;2024-02-26T09:36:59;10.00;;;9.00;;
18576;SDS011;9418;52.694;13.294;2024-02-26T09:39:26;12.03;;;9.53;;
18576;SDS011;9418;52.694;13.294;2024-02-26T09:41:53;9.77;;;8.77;;
18576;SDS011;9418;52.694;13.294;2024-02-26T09:44:19;13.20;;;9.83;;
18576;SDS011;9418;52.694;13.294;2024-02-26T09:46:48;13.93;;;9.27;;
18576;SDS011;9418;52.694;13.294;2024-02-26T09:49:15;11.60;;;9.47;;
18576;SDS011;9418;52.694;13.294;2024-02-26T09:51:42;10.50;;;9.20;;
18576;SDS011;9418;52.694;13.294;2024-02-26T09:54:09;9.30;;;8.23;;
18576;SDS011;9418;52.694;13.294;2024-02-26T09:56:38;11.23;;;8.30;;
18576;SDS011;9418;52.694;13.294;2024-02-26T09:59:05;11.13;;;9.37;;
18576;SDS011;9418;52.694;13.294;2024-02-26T10:01:36;10.83;;;8.87;;
18576;SDS011;9418;52.694;13.294;2024-02-26T10:04:06;11.67;;;9.00;;
18576;SDS011;9418;52.694;13.294;2024-02-26T10:06:34;10.53;;;8.53;;
18576;SDS011;9418;52.694;13.294;2024-02-26T10:09:03;9.93;;;7.90;;
18576;SDS011;9418;52.694;13.294;2024-02-26T10:11:32;9.67;;;8.60;;
18576;SDS011;9418;52.694;13.294;2024-02-26T10:13:58;12.63;;;8.23;;
18576;SDS011;9418;52.694;13.294;2024-02-26T10:16:25;8.50;;;7.33;;
18576;SDS011;9418;52.694;13.294;2024-02-26T10:18:52;9.10;;;8.20;;
18576;SDS011;9418;52.694;13.294;2024-02-26T10:21:21;12.53;;;7.77;;
18576;SDS011;9418;52.694;13.294;2024-02-26T10:23:48;11.10;;;8.63;;
18576;SDS011;9418;52.694;13.294;2024-02-26T10:26:15;9.23;;;7.60;;
18576;SDS011;9418;52.694;13.294;2024-02-26T10:28:43;12.50;;;8.20;;
18576;SDS011;9418;52.694;13.294;2024-02-26T10:31:11;8.27;;;7.47;;
18576;SDS011;9418;52.694;13.294;2024-02-26T10:33:39;9.37;;;8.13;;
18576;SDS011;9418;52.694;13.294;2024-02-26T10:36:08;8.33;;;7.40;;
18576;SDS011;9418;52.694;13.294;2024-02-26T10:38:36;9.43;;;7.53;;
18576;SDS011;9418;52.694;13.294;2024-02-26T10:41:04;8.18;;;7.10;;
18576;SDS011;9418;52.694;13.294;2024-02-26T10:43:31;8.23;;;7.43;;
18576;SDS011;9418;52.694;13.294;2024-02-26T10:45:58;7.90;;;7.10;;
18576;SDS011;9418;52.694;13.294;2024-02-26T10:48:25;7.70;;;6.43;;
18576;SDS011;9418;52.694;13.294;2024-02-26T10:50:52;9.47;;;7.20;;
18576;SDS011;9418;52.694;13.294;2024-02-26T10:53:20;8.40;;;7.13;;
18576;SDS011;9418;52.694;13.294;2024-02-26T10:55:52;12.70;;;8.03;;
18576;SDS011;9418;52.694;13.294;2024-02-26T10:58:20;11.57;;;7.70;;
18576;SDS011;9418;52.694;13.294;2024-02-26T11:00:49;7.80;;;7.10;;
18576;SDS011;9418;52.694;13.294;2024-02-26T11:03:17;9.20;;;7.97;;
18576;SDS011;9418;52.694;13.294;2024-02-26T11:05:44;10.17;;;7.60;;
18576;SDS011;9418;52.694;13.294;2024-02-26T11:08:13;9.00;;;8.03;;
18576;SDS011;9418;52.694;13.294;2024-02-26T11:10:40;9.10;;;8.13;;
18576;SDS011;9418;52.694;13.294;2024-02-26T11:13:10;9.03;;;8.13;;
18576;SDS011;9418;52.694;13.294;2024-02-26T11:15:40;11.20;;;8.93;;
18576;SDS011;9418;52.694;13.294;2024-02-26T11:18:07;8.33;;;7.40;;
18576;SDS011;9418;52.694;13.294;2024-02-26T11:20:35;8.60;;;7.70;;
18576;SDS011;9418;52.694;13.294;2024-02-26T11:23:04;15.60;;;9.33;;
18576;SDS011;9418;52.694;13.294;2024-02-26T11:25:32;11.23;;;8.67;;
18576;SDS011;9418;52.694;13.294;2024-02-26T11:28:00;13.37;;;8.47;;
18576;SDS011;9418;52.694;13.294;2024-02-26T11:30:31;11.75;;;7.82;;
18576;SDS011;9418;52.694;13.294;2024-02-26T11:33:00;11.50;;;8.60;;
18576;SDS011;9418;52.694;13.294;2024-02-26T11:35:27;14.53;;;8.60;;
18576;SDS011;9418;52.694;13.294;2024-02-26T11:37:55;11.53;;;9.77;;
18576;SDS011;9418;52.694;13.294;2024-02-26T11:40:23;12.13;;;10.07;;
18576;SDS011;9418;52.694;13.294;2024-02-26T11:42:50;11.07;;;8.43;;
18576;SDS011;9418;52.694;13.294;2024-02-26T11:48:25;12.23;;;9.53;;
18576;SDS011;9418;52.694;13.294;2024-02-26T11:50:55;12.43;;;9.57;;
18576;SDS011;9418;52.694;13.294;2024-02-26T11:53:24;15.17;;;11.20;;
18576;SDS011;9418;52.694;13.294;2024-02-26T11:58:45;12.07;;;9.40;;
18576;SDS011;9418;52.694;13.294;2024-02-26T12:04:12;9.98;;;8.00;;
18576;SDS011;9418;52.694;13.294;2024-02-26T12:06:42;9.93;;;8.87;;
18576;SDS011;9418;52.694;13.294;2024-02-26T12:09:12;9.80;;;8.80;;
18576;SDS011;9418;52.694;13.294;2024-02-26T12:11:39;10.27;;;7.70;;
18576;SDS011;9418;52.694;13.294;2024-02-26T12:14:08;8.90;;;8.00;;
18576;SDS011;9418;52.694;13.294;2024-02-26T12:16:36;9.43;;;7.13;;
18576;SDS011;9418;52.694;13.294;2024-02-26T12:19:03;8.50;;;7.20;;
18576;SDS011;9418;52.694;13.294;2024-02-26T12:21:32;8.57;;;7.47;;
18576;SDS011;9418;52.694;13.294;2024-02-26T12:24:07;12.10;;;8.80;;
18576;SDS011;9418;52.694;13.294;2024-02-26T12:26:38;11.30;;;7.03;;
18576;SDS011;9418;52.694;13.294;2024-02-26T12:29:05;7.40;;;6.60;;
18576;SDS011;9418;52.694;13.294;2024-02-26T12:31:32;11.00;;;6.97;;
18576;SDS011;9418;52.694;13.294;2024-02-26T12:33:59;11.23;;;9.10;;
18576;SDS011;9418;52.694;13.294;2024-02-26T12:36:26;9.57;;;6.23;;
18576;SDS011;9418;52.694;13.294;2024-02-26T12:38:54;10.37;;;6.73;;
18576;SDS011;9418;52.694;13.294;2024-02-26T12:41:21;10.07;;;7.33;;
18576;SDS011;9418;52.694;13.294;2024-02-26T12:43:48;14.43;;;10.57;;
18576;SDS011;9418;52.694;13.294;2024-02-26T12:46:15;6.37;;;5.30;;
18576;SDS011;9418;52.694;13.294;2024-02-26T12:48:42;9.50;;;6.53;;
18576;SDS011;9418;52.694;13.294;2024-02-26T12:51:09;9.33;;;6.00;;
18576;SDS011;9418;52.694;13.294;2024-02-26T12:53:37;5.80;;;4.30;;
18576;SDS011;9418;52.694;13.294;2024-02-26T12:56:06;10.17;;;6.63;;
18576;SDS011;9418;52.694;13.294;2024-02-26T12:58:34;9.30;;;4.30;;
18576;SDS011;9418;52.694;13.294;2024-02-26T13:01:03;5.07;;;4.10;;
18576;SDS011;9418;52.694;13.294;2024-02-26T13:03:30;7.20;;;5.10;;
18576;SDS011;9418;52.694;13.294;2024-02-26T13:05:57;6.47;;;5.40;;
18576;SDS011;9418;52.694;13.294;2024-02-26T13:08:25;7.00;;;4.93;;
18576;SDS011;9418;52.694;13.294;2024-02-26T13:10:51;4.40;;;3.97;;
18576;SDS011;9418;52.694;13.294;2024-02-26T13:13:19;7.07;;;6.27;;
18576;SDS011;9418;52.694;13.294;2024-02-26T13:15:48;4.90;;;4.40;;
18576;SDS011;9418;52.694;13.294;2024-02-26T13:18:15;5.43;;;4.90;;
18576;SDS011;9418;52.694;13.294;2024-02-26T13:20:42;5.03;;;4.30;;
18576;SDS011;9418;52.694;13.294;2024-02-26T13:23:10;6.03;;;5.20;;
18576;SDS011;9418;52.694;13.294;2024-02-26T13:25:38;7.97;;;6.57;;
18576;SDS011;9418;52.694;13.294;2024-02-26T13:28:06;4.80;;;4.10;;
18576;SDS011;9418;52.694;13.294;2024-02-26T13:30:35;4.00;;;3.60;;
18576;SDS011;9418;52.694;13.294;2024-02-26T13:33:08;4.60;;;3.80;;
18576;SDS011;9418;52.694;13.294;2024-02-26T13:35:36;6.00;;;5.23;;
18576;SDS011;9418;52.694;13.294;2024-02-26T13:38:04;4.20;;;3.70;;
18576;SDS011;9418;52.694;13.294;2024-02-26T13:40:30;6.77;;;5.77;;
18576;SDS011;9418;52.694;13.294;2024-02-26T13:42:57;3.70;;;3.40;;
18576;SDS011;9418;52.694;13.294;2024-02-26T13:45:24;6.23;;;4.30;;
18576;SDS011;9418;52.694;13.294;2024-02-26T13:47:52;3.63;;;3.30;;
18576;SDS011;9418;52.694;13.294;2024-02-26T13:50:18;4.80;;;4.30;;
18576;SDS011;9418;52.694;13.294;2024-02-26T13:52:48;5.33;;;4.63;;
18576;SDS011;9418;52.694;13.294;2024-02-26T13:55:18;6.03;;;3.73;;
18576;SDS011;9418;52.694;13.294;2024-02-26T13:57:44;5.93;;;5.33;;
18576;SDS011;9418;52.694;13.294;2024-02-26T14:00:12;10.20;;;7.63;;
18576;SDS011;9418;52.694;13.294;2024-02-26T14:02:39;8.60;;;5.00;;
18576;SDS011;9418;52.694;13.294;2024-02-26T14:05:07;7.60;;;5.90;;
18576;SDS011;9418;52.694;13.294;2024-02-26T14:07:34;4.53;;;4.13;;
18576;SDS011;9418;52.694;13.294;2024-02-26T14:10:01;5.00;;;4.60;;
18576;SDS011;9418;52.694;13.294;2024-02-26T14:12:27;14.07;;;10.83;;
18576;SDS011;9418;52.694;13.294;2024-02-26T14:14:54;11.20;;;8.53;;
18576;SDS011;9418;52.694;13.294;2024-02-26T14:17:21;14.37;;;11.10;;
18576;SDS011;9418;52.694;13.294;2024-02-26T14:19:47;10.93;;;5.77;;
18576;SDS011;9418;52.694;13.294;2024-02-26T14:22:16;14.20;;;6.40;;
18576;SDS011;9418;52.694;13.294;2024-02-26T14:24:42;8.97;;;6.47;;
18576;SDS011;9418;52.694;13.294;2024-02-26T14:27:09;4.40;;;4.00;;
18576;SDS011;9418;52.694;13.294;2024-02-26T14:29:39;5.10;;;3.83;;
18576;SDS011;9418;52.694;13.294;2024-02-26T14:32:06;6.77;;;6.10;;
18576;SDS011;9418;52.694;13.294;2024-02-26T14:34:33;6.37;;;5.40;;
18576;SDS011;9418;52.694;13.294;2024-02-26T14:37:00;7.30;;;5.10;;
18576;SDS011;9418;52.694;13.294;2024-02-26T14:39:28;5.67;;;5.07;;
18576;SDS011;9418;52.694;13.294;2024-02-26T14:41:54;6.47;;;4.97;;
18576;SDS011;9418;52.694;13.294;2024-02-26T14:44:22;8.33;;;6.57;;
18576;SDS011;9418;52.694;13.294;2024-02-26T14:46:49;5.57;;;4.87;;
18576;SDS011;9418;52.694;13.294;2024-02-26T14:49:16;9.07;;;7.40;;
18576;SDS011;9418;52.694;13.294;2024-02-26T14:51:42;9.80;;;6.33;;
18576;SDS011;9418;52.694;13.294;2024-02-26T14:54:10;13.57;;;6.77;;